sensor_id;sensor_type;location;lat;lon;timestamp;P1;durP1;ratioP1;P2;durP2;ratioP2
20154;SDS011;10238;49.556;10.956;2023-09-07T00:00:11;8.18;;;4.90;;
20154;SDS011;10238;49.556;10.956;2023-09-07T00:03:00;5.22;;;4.72;;
20154;SDS011;10238;49.556;10.956;2023-09-07T00:05:50;5.00;;;4.50;;
20154;SDS011;10238;49.556;10.956;2023-09-07T00:08:37;4.97;;;4.50;;
20154;SDS011;10238;49.556;10.956;2023-09-07T00:11:25;5.45;;;4.95;;
20154;SDS011;10238;49.556;10.956;2023-09-07T00:14:14;5.45;;;4.93;;
20154;SDS011;10238;49.556;10.956;2023-09-07T00:17:02;5.60;;;4.43;;
20154;SDS011;10238;49.556;10.956;2023-09-07T00:19:51;6.53;;;4.45;;
20154;SDS011;10238;49.556;10.956;2023-09-07T00:22:40;7.15;;;4.55;;
20154;SDS011;10238;49.556;10.956;2023-09-07T00:25:28;5.80;;;5.00;;
20154;SDS011;10238;49.556;10.956;2023-09-07T00:28:16;4.88;;;4.38;;
20154;SDS011;10238;49.556;10.956;2023-09-07T00:31:04;7.80;;;4.80;;
20154;SDS011;10238;49.556;10.956;2023-09-07T00:33:52;5.43;;;4.40;;
20154;SDS011;10238;49.556;10.956;2023-09-07T00:36:40;8.68;;;5.10;;
20154;SDS011;10238;49.556;10.956;2023-09-07T00:39:27;5.18;;;4.68;;
20154;SDS011;10238;49.556;10.956;2023-09-07T00:42:15;5.32;;;4.60;;
20154;SDS011;10238;49.556;10.956;2023-09-07T00:45:04;5.10;;;4.45;;
20154;SDS011;10238;49.556;10.956;2023-09-07T00:47:57;5.07;;;4.47;;
20154;SDS011;10238;49.556;10.956;2023-09-07T00:50:45;4.82;;;4.32;;
20154;SDS011;10238;49.556;10.956;2023-09-07T00:53:33;5.10;;;4.20;;
20154;SDS011;10238;49.556;10.956;2023-09-07T00:56:21;5.05;;;4.10;;
20154;SDS011;10238;49.556;10.956;2023-09-07T00:59:09;5.65;;;4.63;;
20154;SDS011;10238;49.556;10.956;2023-09-07T01:01:58;5.93;;;4.55;;
20154;SDS011;10238;49.556;10.956;2023-09-07T01:04:48;5.55;;;4.93;;
20154;SDS011;10238;49.556;10.956;2023-09-07T01:07:38;7.60;;;4.38;;
20154;SDS011;10238;49.556;10.956;2023-09-07T01:10:32;5.72;;;4.60;;
20154;SDS011;10238;49.556;10.956;2023-09-07T01:13:20;5.18;;;4.53;;
20154;SDS011;10238;49.556;10.956;2023-09-07T01:16:07;5.28;;;4.30;;
20154;SDS011;10238;49.556;10.956;2023-09-07T01:18:56;6.28;;;4.47;;
20154;SDS011;10238;49.556;10.956;2023-09-07T01:21:46;5.35;;;4.40;;
20154;SDS011;10238;49.556;10.956;2023-09-07T01:24:35;6.25;;;4.70;;
20154;SDS011;10238;49.556;10.956;2023-09-07T01:27:26;5.05;;;4.55;;
20154;SDS011;10238;49.556;10.956;2023-09-07T01:30:15;4.88;;;4.40;;
20154;SDS011;10238;49.556;10.956;2023-09-07T01:33:03;8.25;;;4.68;;
20154;SDS011;10238;49.556;10.956;2023-09-07T01:35:51;7.30;;;4.43;;
20154;SDS011;10238;49.556;10.956;2023-09-07T01:38:40;5.45;;;4.90;;
20154;SDS011;10238;49.556;10.956;2023-09-07T01:41:28;5.70;;;4.95;;
20154;SDS011;10238;49.556;10.956;2023-09-07T01:44:16;4.90;;;4.50;;
20154;SDS011;10238;49.556;10.956;2023-09-07T01:47:03;4.72;;;4.25;;
20154;SDS011;10238;49.556;10.956;2023-09-07T01:49:52;5.15;;;4.28;;
20154;SDS011;10238;49.556;10.956;2023-09-07T01:52:39;6.00;;;4.60;;
20154;SDS011;10238;49.556;10.956;2023-09-07T01:55:29;8.85;;;4.63;;
20154;SDS011;10238;49.556;10.956;2023-09-07T01:58:16;6.15;;;4.80;;
20154;SDS011;10238;49.556;10.956;2023-09-07T02:01:04;7.60;;;4.20;;
20154;SDS011;10238;49.556;10.956;2023-09-07T02:03:52;6.13;;;4.88;;
20154;SDS011;10238;49.556;10.956;2023-09-07T02:06:39;5.40;;;3.78;;
20154;SDS011;10238;49.556;10.956;2023-09-07T02:09:27;5.88;;;4.57;;
20154;SDS011;10238;49.556;10.956;2023-09-07T02:12:16;5.88;;;4.47;;
20154;SDS011;10238;49.556;10.956;2023-09-07T02:15:04;6.55;;;4.65;;
20154;SDS011;10238;49.556;10.956;2023-09-07T02:17:53;10.50;;;5.10;;
20154;SDS011;10238;49.556;10.956;2023-09-07T02:20:42;5.85;;;4.47;;
20154;SDS011;10238;49.556;10.956;2023-09-07T02:23:31;4.63;;;3.88;;
20154;SDS011;10238;49.556;10.956;2023-09-07T02:26:19;5.22;;;4.72;;
20154;SDS011;10238;49.556;10.956;2023-09-07T02:29:08;5.28;;;4.78;;
20154;SDS011;10238;49.556;10.956;2023-09-07T02:31:56;7.00;;;4.70;;
20154;SDS011;10238;49.556;10.956;2023-09-07T02:34:43;5.03;;;4.53;;
20154;SDS011;10238;49.556;10.956;2023-09-07T02:37:31;5.53;;;4.90;;
20154;SDS011;10238;49.556;10.956;2023-09-07T02:40:19;5.45;;;4.95;;
20154;SDS011;10238;49.556;10.956;2023-09-07T02:43:06;5.70;;;4.28;;
20154;SDS011;10238;49.556;10.956;2023-09-07T02:45:55;6.00;;;4.30;;
20154;SDS011;10238;49.556;10.956;2023-09-07T02:48:43;5.70;;;4.68;;
20154;SDS011;10238;49.556;10.956;2023-09-07T02:51:31;6.10;;;4.68;;
20154;SDS011;10238;49.556;10.956;2023-09-07T02:54:18;7.28;;;4.50;;
20154;SDS011;10238;49.556;10.956;2023-09-07T02:57:06;5.35;;;4.82;;
20154;SDS011;10238;49.556;10.956;2023-09-07T02:59:54;5.63;;;4.88;;
20154;SDS011;10238;49.556;10.956;2023-09-07T03:02:43;5.32;;;4.80;;
20154;SDS011;10238;49.556;10.956;2023-09-07T03:05:31;5.07;;;4.57;;
20154;SDS011;10238;49.556;10.956;2023-09-07T03:08:19;7.18;;;4.93;;
20154;SDS011;10238;49.556;10.956;2023-09-07T03:11:07;4.88;;;4.38;;
20154;SDS011;10238;49.556;10.956;2023-09-07T03:13:56;5.25;;;4.43;;
20154;SDS011;10238;49.556;10.956;2023-09-07T03:16:43;6.63;;;4.50;;
20154;SDS011;10238;49.556;10.956;2023-09-07T03:19:32;5.95;;;5.10;;
20154;SDS011;10238;49.556;10.956;2023-09-07T03:22:20;5.85;;;5.22;;
20154;SDS011;10238;49.556;10.956;2023-09-07T03:25:09;8.82;;;4.93;;
20154;SDS011;10238;49.556;10.956;2023-09-07T03:27:58;6.15;;;4.88;;
20154;SDS011;10238;49.556;10.956;2023-09-07T03:30:46;8.60;;;5.10;;
20154;SDS011;10238;49.556;10.956;2023-09-07T03:33:33;7.43;;;4.80;;
20154;SDS011;10238;49.556;10.956;2023-09-07T03:36:22;5.90;;;5.30;;
20154;SDS011;10238;49.556;10.956;2023-09-07T03:39:10;5.47;;;4.93;;
20154;SDS011;10238;49.556;10.956;2023-09-07T03:41:57;5.97;;;5.07;;
20154;SDS011;10238;49.556;10.956;2023-09-07T03:44:45;7.07;;;5.20;;
20154;SDS011;10238;49.556;10.956;2023-09-07T03:47:32;6.28;;;5.10;;
20154;SDS011;10238;49.556;10.956;2023-09-07T03:50:20;5.65;;;4.85;;
20154;SDS011;10238;49.556;10.956;2023-09-07T03:53:09;6.03;;;5.30;;
20154;SDS011;10238;49.556;10.956;2023-09-07T03:55:57;5.85;;;5.25;;
20154;SDS011;10238;49.556;10.956;2023-09-07T03:58:45;5.60;;;4.80;;
20154;SDS011;10238;49.556;10.956;2023-09-07T04:01:33;5.88;;;5.22;;
20154;SDS011;10238;49.556;10.956;2023-09-07T04:04:21;6.63;;;5.30;;
20154;SDS011;10238;49.556;10.956;2023-09-07T04:07:09;6.90;;;5.18;;
20154;SDS011;10238;49.556;10.956;2023-09-07T04:09:58;7.55;;;5.40;;
20154;SDS011;10238;49.556;10.956;2023-09-07T04:12:45;6.18;;;5.57;;
20154;SDS011;10238;49.556;10.956;2023-09-07T04:15:33;5.72;;;5.03;;
20154;SDS011;10238;49.556;10.956;2023-09-07T04:18:28;9.13;;;5.63;;
20154;SDS011;10238;49.556;10.956;2023-09-07T04:21:16;7.45;;;5.80;;
20154;SDS011;10238;49.556;10.956;2023-09-07T04:24:04;7.00;;;5.90;;
20154;SDS011;10238;49.556;10.956;2023-09-07T04:26:57;6.00;;;5.35;;
20154;SDS011;10238;49.556;10.956;2023-09-07T04:29:47;6.25;;;5.65;;
20154;SDS011;10238;49.556;10.956;2023-09-07T04:32:35;5.95;;;5.10;;
20154;SDS011;10238;49.556;10.956;2023-09-07T04:35:26;8.48;;;5.60;;
20154;SDS011;10238;49.556;10.956;2023-09-07T04:38:17;7.65;;;5.90;;
20154;SDS011;10238;49.556;10.956;2023-09-07T04:41:05;6.50;;;5.35;;
20154;SDS011;10238;49.556;10.956;2023-09-07T04:43:56;7.97;;;6.28;;
20154;SDS011;10238;49.556;10.956;2023-09-07T04:46:44;7.65;;;5.78;;
20154;SDS011;10238;49.556;10.956;2023-09-07T04:49:31;5.95;;;5.35;;
20154;SDS011;10238;49.556;10.956;2023-09-07T04:52:19;6.97;;;6.10;;
20154;SDS011;10238;49.556;10.956;2023-09-07T04:55:07;6.60;;;5.90;;
20154;SDS011;10238;49.556;10.956;2023-09-07T04:57:55;7.75;;;5.95;;
20154;SDS011;10238;49.556;10.956;2023-09-07T05:00:44;8.05;;;5.68;;
20154;SDS011;10238;49.556;10.956;2023-09-07T05:03:32;7.22;;;6.00;;
20154;SDS011;10238;49.556;10.956;2023-09-07T05:06:19;7.40;;;6.35;;
20154;SDS011;10238;49.556;10.956;2023-09-07T05:09:09;7.75;;;6.18;;
20154;SDS011;10238;49.556;10.956;2023-09-07T05:11:57;6.78;;;6.07;;
20154;SDS011;10238;49.556;10.956;2023-09-07T05:14:44;6.65;;;5.68;;
20154;SDS011;10238;49.556;10.956;2023-09-07T05:17:33;6.90;;;6.07;;
20154;SDS011;10238;49.556;10.956;2023-09-07T05:20:21;7.88;;;5.38;;
20154;SDS011;10238;49.556;10.956;2023-09-07T05:23:09;9.63;;;6.25;;
20154;SDS011;10238;49.556;10.956;2023-09-07T05:25:57;5.97;;;5.47;;
20154;SDS011;10238;49.556;10.956;2023-09-07T05:28:44;10.63;;;7.10;;
20154;SDS011;10238;49.556;10.956;2023-09-07T05:31:32;7.00;;;5.80;;
20154;SDS011;10238;49.556;10.956;2023-09-07T05:34:21;9.32;;;6.38;;
20154;SDS011;10238;49.556;10.956;2023-09-07T05:37:09;8.65;;;6.30;;
20154;SDS011;10238;49.556;10.956;2023-09-07T05:39:56;10.30;;;6.25;;
20154;SDS011;10238;49.556;10.956;2023-09-07T05:42:44;7.20;;;6.28;;
20154;SDS011;10238;49.556;10.956;2023-09-07T05:45:33;13.02;;;6.30;;
20154;SDS011;10238;49.556;10.956;2023-09-07T05:48:23;8.35;;;5.68;;
20154;SDS011;10238;49.556;10.956;2023-09-07T05:51:12;8.73;;;6.90;;
20154;SDS011;10238;49.556;10.956;2023-09-07T05:54:00;6.57;;;5.70;;
20154;SDS011;10238;49.556;10.956;2023-09-07T05:56:48;10.35;;;7.20;;
20154;SDS011;10238;49.556;10.956;2023-09-07T05:59:36;7.45;;;6.35;;
20154;SDS011;10238;49.556;10.956;2023-09-07T06:02:23;9.18;;;6.78;;
20154;SDS011;10238;49.556;10.956;2023-09-07T06:05:12;8.07;;;6.50;;
20154;SDS011;10238;49.556;10.956;2023-09-07T06:08:01;8.80;;;6.15;;
20154;SDS011;10238;49.556;10.956;2023-09-07T06:10:49;9.13;;;6.60;;
20154;SDS011;10238;49.556;10.956;2023-09-07T06:13:37;7.40;;;5.88;;
20154;SDS011;10238;49.556;10.956;2023-09-07T06:16:24;9.80;;;7.07;;
20154;SDS011;10238;49.556;10.956;2023-09-07T06:19:12;6.72;;;5.88;;
20154;SDS011;10238;49.556;10.956;2023-09-07T06:22:00;10.23;;;6.65;;
20154;SDS011;10238;49.556;10.956;2023-09-07T06:24:49;8.30;;;7.45;;
20154;SDS011;10238;49.556;10.956;2023-09-07T06:27:36;6.65;;;5.63;;
20154;SDS011;10238;49.556;10.956;2023-09-07T06:30:24;8.65;;;6.28;;
20154;SDS011;10238;49.556;10.956;2023-09-07T06:33:11;6.85;;;6.03;;
20154;SDS011;10238;49.556;10.956;2023-09-07T06:35:59;9.98;;;7.18;;
20154;SDS011;10238;49.556;10.956;2023-09-07T06:38:47;10.88;;;7.57;;
20154;SDS011;10238;49.556;10.956;2023-09-07T06:41:37;7.78;;;6.35;;
20154;SDS011;10238;49.556;10.956;2023-09-07T06:44:24;7.72;;;6.78;;
20154;SDS011;10238;49.556;10.956;2023-09-07T06:47:12;15.20;;;7.57;;
20154;SDS011;10238;49.556;10.956;2023-09-07T06:50:00;11.88;;;7.72;;
20154;SDS011;10238;49.556;10.956;2023-09-07T06:52:48;15.73;;;8.02;;
20154;SDS011;10238;49.556;10.956;2023-09-07T06:55:37;10.43;;;7.75;;
20154;SDS011;10238;49.556;10.956;2023-09-07T06:58:26;10.63;;;7.15;;
20154;SDS011;10238;49.556;10.956;2023-09-07T07:01:14;10.02;;;7.45;;
20154;SDS011;10238;49.556;10.956;2023-09-07T07:04:02;10.05;;;7.72;;
20154;SDS011;10238;49.556;10.956;2023-09-07T07:06:50;10.45;;;7.82;;
20154;SDS011;10238;49.556;10.956;2023-09-07T07:09:39;15.00;;;7.53;;
20154;SDS011;10238;49.556;10.956;2023-09-07T07:12:27;9.00;;;7.10;;
20154;SDS011;10238;49.556;10.956;2023-09-07T07:15:16;11.00;;;7.40;;
20154;SDS011;10238;49.556;10.956;2023-09-07T07:18:04;7.60;;;6.43;;
20154;SDS011;10238;49.556;10.956;2023-09-07T07:20:55;9.48;;;6.90;;
20154;SDS011;10238;49.556;10.956;2023-09-07T07:23:42;8.20;;;5.95;;
20154;SDS011;10238;49.556;10.956;2023-09-07T07:26:30;9.98;;;6.93;;
20154;SDS011;10238;49.556;10.956;2023-09-07T07:29:17;8.52;;;6.90;;
20154;SDS011;10238;49.556;10.956;2023-09-07T07:32:06;9.35;;;6.78;;
20154;SDS011;10238;49.556;10.956;2023-09-07T07:34:54;11.00;;;6.80;;
20154;SDS011;10238;49.556;10.956;2023-09-07T07:37:43;8.82;;;6.13;;
20154;SDS011;10238;49.556;10.956;2023-09-07T07:40:31;9.25;;;6.63;;
20154;SDS011;10238;49.556;10.956;2023-09-07T07:43:19;10.23;;;6.65;;
20154;SDS011;10238;49.556;10.956;2023-09-07T07:46:07;8.90;;;6.60;;
20154;SDS011;10238;49.556;10.956;2023-09-07T07:48:57;9.50;;;6.60;;
20154;SDS011;10238;49.556;10.956;2023-09-07T07:51:45;7.60;;;6.90;;
20154;SDS011;10238;49.556;10.956;2023-09-07T07:54:33;9.10;;;7.50;;
20154;SDS011;10238;49.556;10.956;2023-09-07T07:57:22;6.47;;;5.72;;
20154;SDS011;10238;49.556;10.956;2023-09-07T08:00:10;7.95;;;6.80;;
20154;SDS011;10238;49.556;10.956;2023-09-07T08:02:59;10.43;;;7.97;;
20154;SDS011;10238;49.556;10.956;2023-09-07T08:05:49;8.18;;;7.00;;
20154;SDS011;10238;49.556;10.956;2023-09-07T08:08:36;9.82;;;7.50;;
20154;SDS011;10238;49.556;10.956;2023-09-07T08:11:25;7.53;;;6.20;;
20154;SDS011;10238;49.556;10.956;2023-09-07T08:14:13;10.02;;;6.90;;
20154;SDS011;10238;49.556;10.956;2023-09-07T08:17:00;6.30;;;4.68;;
20154;SDS011;10238;49.556;10.956;2023-09-07T08:19:48;5.80;;;4.32;;
20154;SDS011;10238;49.556;10.956;2023-09-07T08:22:42;7.32;;;5.07;;
20154;SDS011;10238;49.556;10.956;2023-09-07T08:25:31;5.00;;;4.50;;
20154;SDS011;10238;49.556;10.956;2023-09-07T08:28:19;5.60;;;4.80;;
20154;SDS011;10238;49.556;10.956;2023-09-07T08:31:07;7.18;;;4.55;;
20154;SDS011;10238;49.556;10.956;2023-09-07T08:33:57;4.75;;;4.15;;
20154;SDS011;10238;49.556;10.956;2023-09-07T08:36:44;4.65;;;4.25;;
20154;SDS011;10238;49.556;10.956;2023-09-07T08:39:33;6.45;;;4.25;;
20154;SDS011;10238;49.556;10.956;2023-09-07T08:42:22;9.27;;;4.47;;
20154;SDS011;10238;49.556;10.956;2023-09-07T08:45:10;6.00;;;4.60;;
20154;SDS011;10238;49.556;10.956;2023-09-07T08:48:06;5.20;;;4.70;;
20154;SDS011;10238;49.556;10.956;2023-09-07T08:50:55;4.95;;;4.45;;
20154;SDS011;10238;49.556;10.956;2023-09-07T08:53:44;5.40;;;4.45;;
20154;SDS011;10238;49.556;10.956;2023-09-07T08:56:34;5.70;;;4.20;;
20154;SDS011;10238;49.556;10.956;2023-09-07T08:59:22;6.82;;;4.38;;
20154;SDS011;10238;49.556;10.956;2023-09-07T09:02:10;4.85;;;4.40;;
20154;SDS011;10238;49.556;10.956;2023-09-07T09:04:57;6.03;;;4.60;;
20154;SDS011;10238;49.556;10.956;2023-09-07T09:07:46;4.65;;;4.10;;
20154;SDS011;10238;49.556;10.956;2023-09-07T09:10:34;5.70;;;4.20;;
20154;SDS011;10238;49.556;10.956;2023-09-07T09:13:28;8.52;;;4.28;;
20154;SDS011;10238;49.556;10.956;2023-09-07T09:16:20;6.07;;;4.22;;
20154;SDS011;10238;49.556;10.956;2023-09-07T09:19:08;6.10;;;4.20;;
20154;SDS011;10238;49.556;10.956;2023-09-07T09:21:55;6.38;;;3.92;;
20154;SDS011;10238;49.556;10.956;2023-09-07T09:24:43;5.03;;;3.90;;
20154;SDS011;10238;49.556;10.956;2023-09-07T09:27:34;4.03;;;3.72;;
20154;SDS011;10238;49.556;10.956;2023-09-07T09:30:24;4.10;;;3.70;;
20154;SDS011;10238;49.556;10.956;2023-09-07T09:33:13;5.25;;;3.88;;
20154;SDS011;10238;49.556;10.956;2023-09-07T09:36:01;6.85;;;4.18;;
20154;SDS011;10238;49.556;10.956;2023-09-07T09:38:51;4.90;;;4.30;;
20154;SDS011;10238;49.556;10.956;2023-09-07T09:41:39;6.85;;;4.43;;
20154;SDS011;10238;49.556;10.956;2023-09-07T09:44:27;6.53;;;3.75;;
20154;SDS011;10238;49.556;10.956;2023-09-07T09:47:18;5.65;;;3.75;;
20154;SDS011;10238;49.556;10.956;2023-09-07T09:50:09;3.92;;;3.33;;
20154;SDS011;10238;49.556;10.956;2023-09-07T09:52:58;3.90;;;3.50;;
20154;SDS011;10238;49.556;10.956;2023-09-07T09:55:50;4.43;;;3.63;;
20154;SDS011;10238;49.556;10.956;2023-09-07T09:58:39;3.75;;;3.40;;
20154;SDS011;10238;49.556;10.956;2023-09-07T10:01:27;4.60;;;4.15;;
20154;SDS011;10238;49.556;10.956;2023-09-07T10:04:19;4.22;;;3.50;;
20154;SDS011;10238;49.556;10.956;2023-09-07T10:07:09;4.63;;;3.72;;
20154;SDS011;10238;49.556;10.956;2023-09-07T10:09:56;6.57;;;3.90;;
20154;SDS011;10238;49.556;10.956;2023-09-07T10:12:50;3.90;;;3.45;;
20154;SDS011;10238;49.556;10.956;2023-09-07T10:15:40;3.95;;;3.55;;
20154;SDS011;10238;49.556;10.956;2023-09-07T10:18:32;4.00;;;3.60;;
20154;SDS011;10238;49.556;10.956;2023-09-07T10:21:25;4.10;;;3.78;;
20154;SDS011;10238;49.556;10.956;2023-09-07T10:24:23;4.13;;;3.58;;
20154;SDS011;10238;49.556;10.956;2023-09-07T10:27:13;4.47;;;3.90;;
20154;SDS011;10238;49.556;10.956;2023-09-07T10:30:01;4.07;;;3.17;;
20154;SDS011;10238;49.556;10.956;2023-09-07T10:32:59;4.43;;;3.35;;
20154;SDS011;10238;49.556;10.956;2023-09-07T10:35:47;4.25;;;3.60;;
20154;SDS011;10238;49.556;10.956;2023-09-07T10:38:36;4.05;;;3.65;;
20154;SDS011;10238;49.556;10.956;2023-09-07T10:41:25;5.10;;;3.60;;
20154;SDS011;10238;49.556;10.956;2023-09-07T10:44:14;4.22;;;3.83;;
20154;SDS011;10238;49.556;10.956;2023-09-07T10:47:02;4.78;;;3.65;;
20154;SDS011;10238;49.556;10.956;2023-09-07T10:49:51;3.95;;;3.55;;
20154;SDS011;10238;49.556;10.956;2023-09-07T10:52:38;4.65;;;3.72;;
20154;SDS011;10238;49.556;10.956;2023-09-07T10:55:34;4.10;;;3.55;;
20154;SDS011;10238;49.556;10.956;2023-09-07T10:58:25;4.57;;;3.50;;
20154;SDS011;10238;49.556;10.956;2023-09-07T11:01:16;5.07;;;3.55;;
20154;SDS011;10238;49.556;10.956;2023-09-07T11:04:04;3.92;;;3.53;;
20154;SDS011;10238;49.556;10.956;2023-09-07T11:06:54;4.35;;;3.55;;
20154;SDS011;10238;49.556;10.956;2023-09-07T11:09:42;4.78;;;3.58;;
20154;SDS011;10238;49.556;10.956;2023-09-07T11:12:35;4.05;;;3.65;;
20154;SDS011;10238;49.556;10.956;2023-09-07T11:15:25;5.20;;;3.83;;
20154;SDS011;10238;49.556;10.956;2023-09-07T11:18:13;4.38;;;3.97;;
20154;SDS011;10238;49.556;10.956;2023-09-07T11:21:05;4.72;;;3.58;;
20154;SDS011;10238;49.556;10.956;2023-09-07T11:23:54;4.03;;;3.33;;
20154;SDS011;10238;49.556;10.956;2023-09-07T11:26:44;4.35;;;3.95;;
20154;SDS011;10238;49.556;10.956;2023-09-07T11:29:35;3.67;;;3.38;;
20154;SDS011;10238;49.556;10.956;2023-09-07T11:32:24;4.95;;;3.80;;
20154;SDS011;10238;49.556;10.956;2023-09-07T11:35:20;4.43;;;4.03;;
20154;SDS011;10238;49.556;10.956;2023-09-07T11:38:11;7.40;;;4.00;;
20154;SDS011;10238;49.556;10.956;2023-09-07T11:41:00;3.88;;;3.58;;
20154;SDS011;10238;49.556;10.956;2023-09-07T11:43:49;5.43;;;3.42;;
20154;SDS011;10238;49.556;10.956;2023-09-07T11:46:41;3.78;;;3.38;;
20154;SDS011;10238;49.556;10.956;2023-09-07T11:49:29;4.47;;;3.45;;
20154;SDS011;10238;49.556;10.956;2023-09-07T11:52:17;4.43;;;3.58;;
20154;SDS011;10238;49.556;10.956;2023-09-07T11:55:06;4.82;;;3.58;;
20154;SDS011;10238;49.556;10.956;2023-09-07T11:57:57;5.20;;;3.70;;
20154;SDS011;10238;49.556;10.956;2023-09-07T12:00:44;5.72;;;3.45;;
20154;SDS011;10238;49.556;10.956;2023-09-07T12:03:34;4.05;;;3.55;;
20154;SDS011;10238;49.556;10.956;2023-09-07T12:06:22;4.00;;;3.30;;
20154;SDS011;10238;49.556;10.956;2023-09-07T12:09:10;7.22;;;3.35;;
20154;SDS011;10238;49.556;10.956;2023-09-07T12:11:57;6.45;;;3.88;;
20154;SDS011;10238;49.556;10.956;2023-09-07T12:14:45;4.93;;;3.78;;
20154;SDS011;10238;49.556;10.956;2023-09-07T12:17:33;4.80;;;3.50;;
20154;SDS011;10238;49.556;10.956;2023-09-07T12:20:23;4.22;;;3.80;;
20154;SDS011;10238;49.556;10.956;2023-09-07T12:23:12;4.90;;;3.38;;
20154;SDS011;10238;49.556;10.956;2023-09-07T12:26:00;4.13;;;3.22;;
20154;SDS011;10238;49.556;10.956;2023-09-07T12:28:50;7.18;;;3.50;;
20154;SDS011;10238;49.556;10.956;2023-09-07T12:31:38;3.67;;;3.35;;
20154;SDS011;10238;49.556;10.956;2023-09-07T12:34:25;4.20;;;3.80;;
20154;SDS011;10238;49.556;10.956;2023-09-07T12:37:18;4.20;;;3.80;;
20154;SDS011;10238;49.556;10.956;2023-09-07T12:40:10;4.07;;;3.67;;
20154;SDS011;10238;49.556;10.956;2023-09-07T12:42:59;6.80;;;3.72;;
20154;SDS011;10238;49.556;10.956;2023-09-07T12:45:47;4.13;;;3.53;;
20154;SDS011;10238;49.556;10.956;2023-09-07T12:48:35;4.32;;;3.45;;
20154;SDS011;10238;49.556;10.956;2023-09-07T12:51:22;3.97;;;3.47;;
20154;SDS011;10238;49.556;10.956;2023-09-07T12:54:11;4.57;;;3.42;;
20154;SDS011;10238;49.556;10.956;2023-09-07T12:56:59;4.03;;;3.40;;
20154;SDS011;10238;49.556;10.956;2023-09-07T12:59:46;4.38;;;3.70;;
20154;SDS011;10238;49.556;10.956;2023-09-07T13:02:35;5.75;;;3.95;;
20154;SDS011;10238;49.556;10.956;2023-09-07T13:05:22;5.53;;;3.40;;
20154;SDS011;10238;49.556;10.956;2023-09-07T13:08:10;4.28;;;3.88;;
20154;SDS011;10238;49.556;10.956;2023-09-07T13:10:59;3.95;;;3.53;;
20154;SDS011;10238;49.556;10.956;2023-09-07T13:13:47;4.00;;;3.60;;
20154;SDS011;10238;49.556;10.956;2023-09-07T13:16:34;5.68;;;3.50;;
20154;SDS011;10238;49.556;10.956;2023-09-07T13:19:22;4.22;;;3.67;;
20154;SDS011;10238;49.556;10.956;2023-09-07T13:22:10;4.05;;;3.28;;
20154;SDS011;10238;49.556;10.956;2023-09-07T13:24:57;5.50;;;3.63;;
20154;SDS011;10238;49.556;10.956;2023-09-07T13:27:48;3.70;;;3.40;;
20154;SDS011;10238;49.556;10.956;2023-09-07T13:30:36;4.43;;;3.53;;
20154;SDS011;10238;49.556;10.956;2023-09-07T13:33:23;4.50;;;3.78;;
20154;SDS011;10238;49.556;10.956;2023-09-07T13:36:11;4.30;;;3.90;;
20154;SDS011;10238;49.556;10.956;2023-09-07T13:38:59;4.72;;;4.20;;
20154;SDS011;10238;49.556;10.956;2023-09-07T13:41:47;3.80;;;3.50;;
20154;SDS011;10238;49.556;10.956;2023-09-07T13:44:36;4.25;;;3.70;;
20154;SDS011;10238;49.556;10.956;2023-09-07T13:47:23;4.18;;;3.60;;
20154;SDS011;10238;49.556;10.956;2023-09-07T13:50:14;3.97;;;3.60;;
20154;SDS011;10238;49.556;10.956;2023-09-07T13:53:03;6.28;;;3.60;;
20154;SDS011;10238;49.556;10.956;2023-09-07T13:55:50;3.53;;;3.15;;
20154;SDS011;10238;49.556;10.956;2023-09-07T13:58:39;5.10;;;3.20;;
20154;SDS011;10238;49.556;10.956;2023-09-07T14:01:28;3.90;;;3.33;;
20154;SDS011;10238;49.556;10.956;2023-09-07T14:04:17;5.28;;;4.00;;
20154;SDS011;10238;49.556;10.956;2023-09-07T14:07:05;5.88;;;4.20;;
20154;SDS011;10238;49.556;10.956;2023-09-07T14:09:53;3.80;;;3.40;;
20154;SDS011;10238;49.556;10.956;2023-09-07T14:12:41;4.07;;;3.55;;
20154;SDS011;10238;49.556;10.956;2023-09-07T14:15:29;3.95;;;3.20;;
20154;SDS011;10238;49.556;10.956;2023-09-07T14:18:19;6.53;;;3.75;;
20154;SDS011;10238;49.556;10.956;2023-09-07T14:21:07;4.55;;;3.97;;
20154;SDS011;10238;49.556;10.956;2023-09-07T14:23:54;4.35;;;3.58;;
20154;SDS011;10238;49.556;10.956;2023-09-07T14:26:42;4.70;;;3.97;;
20154;SDS011;10238;49.556;10.956;2023-09-07T14:29:30;5.97;;;3.63;;
20154;SDS011;10238;49.556;10.956;2023-09-07T14:32:18;7.95;;;3.72;;
20154;SDS011;10238;49.556;10.956;2023-09-07T14:35:08;4.65;;;3.60;;
20154;SDS011;10238;49.556;10.956;2023-09-07T14:37:56;4.30;;;3.47;;
20154;SDS011;10238;49.556;10.956;2023-09-07T14:40:44;3.53;;;3.22;;
20154;SDS011;10238;49.556;10.956;2023-09-07T14:43:34;4.85;;;3.88;;
20154;SDS011;10238;49.556;10.956;2023-09-07T14:46:22;5.18;;;3.70;;
20154;SDS011;10238;49.556;10.956;2023-09-07T14:49:10;4.25;;;3.85;;
20154;SDS011;10238;49.556;10.956;2023-09-07T14:51:59;3.65;;;3.30;;
20154;SDS011;10238;49.556;10.956;2023-09-07T14:54:47;5.60;;;3.90;;
20154;SDS011;10238;49.556;10.956;2023-09-07T14:57:35;4.25;;;3.53;;
20154;SDS011;10238;49.556;10.956;2023-09-07T15:00:22;4.28;;;3.65;;
20154;SDS011;10238;49.556;10.956;2023-09-07T15:03:12;3.90;;;3.47;;
20154;SDS011;10238;49.556;10.956;2023-09-07T15:06:00;3.72;;;3.42;;
20154;SDS011;10238;49.556;10.956;2023-09-07T15:08:49;5.88;;;3.88;;
20154;SDS011;10238;49.556;10.956;2023-09-07T15:11:37;4.70;;;4.18;;
20154;SDS011;10238;49.556;10.956;2023-09-07T15:14:28;5.68;;;4.40;;
20154;SDS011;10238;49.556;10.956;2023-09-07T15:17:15;5.68;;;4.18;;
20154;SDS011;10238;49.556;10.956;2023-09-07T15:20:04;6.47;;;4.00;;
20154;SDS011;10238;49.556;10.956;2023-09-07T15:22:53;5.72;;;3.90;;
20154;SDS011;10238;49.556;10.956;2023-09-07T15:25:42;4.38;;;3.75;;
20154;SDS011;10238;49.556;10.956;2023-09-07T15:28:30;4.78;;;3.65;;
20154;SDS011;10238;49.556;10.956;2023-09-07T15:31:18;5.80;;;3.78;;
20154;SDS011;10238;49.556;10.956;2023-09-07T15:34:05;4.53;;;4.07;;
20154;SDS011;10238;49.556;10.956;2023-09-07T15:36:53;7.60;;;4.10;;
20154;SDS011;10238;49.556;10.956;2023-09-07T15:39:41;4.25;;;3.85;;
20154;SDS011;10238;49.556;10.956;2023-09-07T15:42:32;3.83;;;3.42;;
20154;SDS011;10238;49.556;10.956;2023-09-07T15:45:21;5.95;;;3.65;;
20154;SDS011;10238;49.556;10.956;2023-09-07T15:48:09;5.47;;;3.72;;
20154;SDS011;10238;49.556;10.956;2023-09-07T15:50:57;4.30;;;3.90;;
20154;SDS011;10238;49.556;10.956;2023-09-07T15:53:44;6.22;;;5.50;;
20154;SDS011;10238;49.556;10.956;2023-09-07T15:56:31;6.70;;;4.20;;
20154;SDS011;10238;49.556;10.956;2023-09-07T15:59:20;4.28;;;3.50;;
20154;SDS011;10238;49.556;10.956;2023-09-07T16:02:08;4.57;;;4.10;;
20154;SDS011;10238;49.556;10.956;2023-09-07T16:04:56;5.68;;;4.32;;
20154;SDS011;10238;49.556;10.956;2023-09-07T16:07:43;5.50;;;4.07;;
20154;SDS011;10238;49.556;10.956;2023-09-07T16:10:33;11.80;;;8.70;;
20154;SDS011;10238;49.556;10.956;2023-09-07T16:13:21;7.90;;;4.22;;
20154;SDS011;10238;49.556;10.956;2023-09-07T16:16:10;7.60;;;4.82;;
20154;SDS011;10238;49.556;10.956;2023-09-07T16:18:58;4.18;;;3.78;;
20154;SDS011;10238;49.556;10.956;2023-09-07T16:21:46;4.28;;;3.88;;
20154;SDS011;10238;49.556;10.956;2023-09-07T16:24:33;4.50;;;3.70;;
20154;SDS011;10238;49.556;10.956;2023-09-07T16:27:21;5.10;;;3.88;;
20154;SDS011;10238;49.556;10.956;2023-09-07T16:30:09;4.38;;;3.33;;
20154;SDS011;10238;49.556;10.956;2023-09-07T16:32:58;5.47;;;3.78;;
20154;SDS011;10238;49.556;10.956;2023-09-07T16:35:46;6.78;;;3.60;;
20154;SDS011;10238;49.556;10.956;2023-09-07T16:38:34;3.95;;;3.47;;